• Join FlightAware (Why Join?)
  • Login
  • US Flag 
01:33PM EDT


 

Airport Tracker/Info


-or-


 

Live Flight TrackerFlight Track Log ✈ OPT452 ✈ 18-Apr-2013 ✈ KAUO - KPIT

Flight Track Log - Related Links

Times and Time Zones

All times are in EDT time to prevent confusion due to time zone crossing. See the OPT452 flight status page for this flight to view local times or setup timezone preferences in your user account.

Time Position Orientation Groundspeed Altitude Reporting Facility
EDT Latitude Longitude Course Direction KTS MPH feet Rate Location/Type
04:59PM 32.5667 -85.4167 53° Northeast 206 237 2,400  Level Atlanta TRACON
05:01PM 32.6228 -85.3286 53° Northeast 247 284 6,300 2,580 Climbing Atlanta Center
05:02PM 32.6878 -85.3000 20° North 242 278 9,300 2,940 Climbing Atlanta Center
05:03PM 32.7406 -85.2389 44° Northeast 247 284 12,200 2,700 Climbing Atlanta Center
05:04PM 32.7933 -85.1706 47° Northeast 260 299 14,700 2,280 Climbing Atlanta Center
05:05PM 32.8483 -85.1044 45° Northeast 272 313 16,800 1,800 Climbing Atlanta Center
05:06PM 32.9053 -85.0286 48° Northeast 297 342 18,400 1,620 Climbing Atlanta Center
05:07PM 32.9953 -84.9925 19° North 324 373 20,100 1,620 Climbing Atlanta Center
05:08PM 33.0875 -84.9586 17° North 329 379 21,700 1,620 Climbing Atlanta Center
05:09PM 33.1836 -84.9250 16° North 349 402 23,400 1,620 Climbing Atlanta Center
05:10PM 33.2778 -84.8911 17° North 349 402 25,000 1,560 Climbing Atlanta Center
05:11PM 33.3825 -84.8522 17° North 357 411 26,600 1,500 Climbing Atlanta Center
05:12PM 33.4744 -84.8183 17° North 352 405 28,100 1,200 Climbing Atlanta Center
05:13PM 33.5728 -84.7842 16° North 347 399 29,100 1,020 Climbing Atlanta Center
05:14PM 33.6775 -84.7428 18° North 367 422 30,200 1,020 Climbing Atlanta Center
05:15PM 33.7800 -84.7036 18° North 372 428 31,200 960 Climbing Atlanta Center
05:16PM 33.8867 -84.6644 17° North 384 442 32,200 960 Climbing Atlanta Center
05:17PM 33.9911 -84.6250 17° North 384 442 33,200 900 Climbing Atlanta Center
05:18PM 34.0956 -84.5906 15° North 384 442 34,100 780 Climbing Atlanta Center
05:19PM 34.1939 -84.5536 17° North 392 451 34,800 660 Climbing Atlanta Center
05:20PM 34.3006 -84.5114 18° North 392 451 35,500 720 Climbing Atlanta Center
05:21PM 34.4156 -84.4669 18° North 392 451 36,300 720 Climbing Atlanta Center
05:22PM 34.5200 -84.4269 18° North 397 457 37,000 720 Climbing Atlanta Center
05:23PM 34.6286 -84.3872 17° North 397 457 37,800 720 Climbing Atlanta Center
05:24PM 34.7331 -84.3472 17° North 403 464 38,500 660 Climbing Atlanta Center
05:25PM 34.8394 -84.3069 17° North 398 458 39,200 660 Climbing Atlanta Center
05:26PM 34.9419 -84.2694 17° North 398 458 39,900 720 Climbing Atlanta Center
05:27PM 35.0483 -84.2264 18° North 392 451 40,700 540 Climbing Atlanta Center
05:28PM 35.1528 -84.1861 17° North 392 451 41,000 120 Climbing Atlanta Center
05:29PM 35.2592 -84.1456 17° North 392 451 41,000  Level Atlanta Center
05:30PM 35.3678 -84.1025 18° North 398 458 41,000  Level Atlanta Center
05:31PM 35.4806 -84.0592 17° North 404 465 41,000  Level Atlanta Center
05:32PM 35.5931 -84.0158 17° North 415 478 41,000  Level Atlanta Center
05:33PM 35.7078 -83.9722 17° North 420 483 41,000  Level Atlanta Center
05:34PM 35.8225 -83.9286 17° North 420 483 41,000  Level Atlanta Center
05:35PM 35.9350 -83.8772 20° North 420 483 41,000  Level Atlanta Center
05:36PM 36.0433 -83.8075 27° Northeast 425 489 41,000  Level Atlanta Center
05:37PM 36.1517 -83.7406 27° Northeast 430 495 41,000  Level Atlanta Center
05:38PM 36.2475 -83.6783 28° Northeast 430 495 41,000  Level Atlanta Center
05:39PM 36.3517 -83.6133 27° Northeast 424 488 41,000  Level Atlanta Center
05:39PM 36.4394 -83.5544 28° Northeast 424 488 41,000  Level Indianapolis Center
05:40PM 36.5422 -83.4914 26° Northeast 424 488 41,000  Level Indianapolis Center
05:41PM 36.6436 -83.4200 29° Northeast 418 481 41,000  Level Indianapolis Center
05:42PM 36.7450 -83.3469 30° Northeast 419 482 41,000  Level Indianapolis Center
05:43PM 36.8458 -83.2725 31° Northeast 418 481 41,000  Level Indianapolis Center
05:44PM 36.9475 -83.1978 30° Northeast 418 481 41,000  Level Indianapolis Center
05:45PM 37.0503 -83.1242 30° Northeast 418 481 41,000  Level Indianapolis Center
05:46PM 37.1514 -83.0478 31° Northeast 417 480 41,000  Level Indianapolis Center
05:48PM 37.2525 -82.9733 30° Northeast 416 479 41,000 -240 Level Indianapolis Center
05:49PM 37.3692 -82.8856 31° Northeast 415 478 40,600 -840 Descending Indianapolis Center
05:50PM 37.4719 -82.8097 30° Northeast 424 488 39,400 -1,140 Descending Indianapolis Center
05:51PM 37.5764 -82.7317 31° Northeast 434 499 38,300 -1,080 Descending Indianapolis Center
05:52PM 37.6794 -82.6533 31° Northeast 432 497 37,200 -660 Descending Indianapolis Center
05:53PM 37.7822 -82.5742 31° Northeast 431 496 37,000 -120 Descending Indianapolis Center
05:54PM 37.8767 -82.5033 31° Northeast 400 460 37,000 -360 Level Indianapolis Center
05:55PM 37.9747 -82.4272 31° Northeast 409 471 36,300 -660 Descending Indianapolis Center
05:56PM 38.0981 -82.3342 31° Northeast 438 504 35,700 -840 Descending Indianapolis Center
05:57PM 38.1947 -82.2597 31° Northeast 451 519 34,600 -1,140 Descending Indianapolis Center
05:58PM 38.3011 -82.1783 31° Northeast 445 512 33,400 -1,200 Descending Indianapolis Center
05:59PM 38.4050 -82.0989 31° Northeast 436 502 32,200 -1,260 Descending Indianapolis Center
06:00PM 38.5089 -82.0172 32° Northeast 437 503 30,900 -1,560 Descending Indianapolis Center
06:01PM 38.6425 -81.9142 31° Northeast 464 534 29,100 -1,800 Descending Indianapolis Center
06:02PM 38.7586 -81.8256 31° Northeast 478 550 27,300 -1,020 Descending Indianapolis Center
06:03PM 38.8725 -81.7356 32° Northeast 471 542 27,000 -180 Descending Indianapolis Center
06:04PM 38.9869 -81.6453 32° Northeast 474 545 27,000 -360 Level Indianapolis Center
06:05PM 39.1019 -81.5550 31° Northeast 479 551 26,300 -1,200 Descending Indianapolis Center
06:06PM 39.2172 -81.4631 32° Northeast 485 558 24,600 -1,620 Descending Indianapolis Center
06:07PM 39.3319 -81.3708 32° Northeast 486 559 23,000 -1,620 Descending Indianapolis Center
06:08PM 39.4414 -81.2833 32° Northeast 470 541 21,300 -1,080 Descending Indianapolis Center
06:09PM 39.5358 -81.2075 32° Northeast 468 539 21,000 -540 Descending Cleveland Center
06:10PM 39.6428 -81.1194 32° Northeast 463 533 20,300 -1,200 Descending Cleveland Center
06:11PM 39.7431 -81.0286 35° Northeast 451 519 18,600 -1,800 Descending Cleveland Center
06:12PM 39.8394 -80.9428 34° Northeast 431 496 16,800 -1,980 Descending Cleveland Center
06:13PM 39.9356 -80.8539 35° Northeast 426 490 14,700 -2,460 Descending Cleveland Center
06:14PM 40.0233 -80.7592 40° Northeast 421 484 11,900 -2,280 Descending Cleveland Center
06:15PM 40.0858 -80.6508 53° Northeast 392 451 10,200 -1,620 Descending Cleveland Center
06:16PM 40.1442 -80.5558 51° Northeast 355 409 8,700 -1,680 Descending Cleveland Center
06:17PM 40.1964 -80.4717 51° Northeast 321 369 6,900 -1,380 Descending Cleveland Center
06:18PM 40.2483 -80.3953 48° Northeast 296 341 6,000 -480 Descending Cleveland Center
06:19PM 40.3044 -80.3028 51° Northeast 287 330 6,000 -600 Level Cleveland Center
06:20PM 40.3564 -80.2233 49° Northeast 287 330 4,900 -1,380 Descending Cleveland Center
06:21PM 40.4103 -80.1442 48° Northeast 287 330 3,300 -1,080 Descending Cleveland Center
06:22PM 40.4644 -80.1247 15° North 253 291 2,800 -540 Descending Cleveland Center